Latest Weather Observations for Mareeba

IDQ60801

Issued at 7:22 am EST Tuesday 16 April 2024 (issued every 10 minutes, with the page automatically refreshed every 10 minutes)

About weather observations | Map of weather stations | Latest weather observations for QLD | Other Formats
Station Details ID: 031210 Name: MAREEBA AIRPORT Lat: -17.07 Lon: 145.43 Height: 471.93 m
Data from the previous 72 hours. | See also: Recent months at Mareeba
Date/Time
EST
Temp
°C
App
Temp
°C
Dew
Point
°C
Rel
Hum
%
Delta-T
°C
Wind Press
QNH
hPa
Press
MSL
hPa
Rain since
9am
mm
Dir  Spd
km/h
Gust
km/h
Spd
kts
Gust
kts
16/07:00am 23.0 26.3 21.8 93 0.8 ESE 7 9 4 5 1017.2 1014.5 42.0
16/06:30am 23.0 23.9 22.0 94 0.7 SE 20 24 11 13 1016.4 1013.7 41.6
16/06:00am 22.9 26.1 21.7 93 0.8 ESE 7 17 4 9 1016.5 1013.8 41.2
16/05:30am 23.2 24.2 21.8 92 0.9 SSE 19 30 10 16 1016.1 1013.3 40.4
16/05:00am 22.9 23.7 21.7 93 0.8 SSE 20 28 11 15 1016.1 1013.3 40.4
16/04:30am 23.2 22.9 21.8 92 0.9 SE 26 35 14 19 1015.9 1013.1 40.4
16/04:00am 23.0 23.7 22.2 95 0.5 SSE 22 30 12 16 1016.0 1013.2 40.0
16/03:30am 22.7 25.4 22.2 97 0.3 SE 11 17 6 9 1016.3 1013.5 39.4
16/03:00am 22.8 23.3 22.0 95 0.5 SSE 22 30 12 16 1016.5 1013.8 38.2
16/02:30am 22.9 23.9 22.2 96 0.5 SSE 20 35 11 19 1016.3 1013.5 37.6
16/02:00am 23.0 25.1 22.5 97 0.3 SSE 15 20 8 11 1016.7 1014.0 37.0
16/01:30am 23.2 24.9 23.0 99 0.1 SSE 19 28 10 15 1017.1 1014.4 36.2
16/01:00am 23.0 26.1 22.8 99 0.1 S 11 15 6 8 1017.3 1014.6 33.8
16/12:30am 22.8 26.5 22.6 99 0.1 SW 7 9 4 5 1018.2 1015.4 33.0
16/12:12am 22.8 26.5 22.6 99 0.1 W 7 9 4 5 1018.5 1015.8 32.2
16/12:04am 22.8 26.7 22.6 99 0.1 NNW 6 11 3 6 1018.3 1015.6 31.4
16/12:00am 22.8 26.1 22.6 99 0.1 NNW 9 15 5 8 1018.4 1015.7 31.0
 
Date/Time
EST
Temp
°C
App
Temp
°C
Dew
Point
°C
Rel
Hum
%
Delta-T
°C
Wind Press
QNH
hPa
Press
MSL
hPa
Rain since
9am
mm
Dir  Spd
km/h
Gust
km/h
Spd
kts
Gust
kts
15/11:46pm 22.8 25.8 22.6 99 0.1 N 11 17 6 9 1018.5 1015.8 27.2
15/11:30pm 22.9 26.3 22.7 99 0.1 N 9 15 5 8 1018.7 1016.0 19.8
15/11:26pm 22.9 26.7 22.7 99 0.1 NNW 7 11 4 6 1018.9 1016.2 17.4
15/11:00pm 23.0 28.2 22.8 99 0.1 CALM 0 0 0 0 1018.9 1016.2 17.0
15/10:50pm 22.9 28.0 22.7 99 0.1 CALM 0 0 0 0 1019.0 1016.3 17.0
15/10:30pm 22.9 26.9 22.7 99 0.1 NNE 6 17 3 9 1018.9 1016.2 16.0
15/10:16pm 23.1 26.6 22.8 98 0.2 SE 9 11 5 6 1019.1 1016.4 14.8
15/10:00pm 23.1 27.7 22.4 96 0.5 E 2 7 1 4 1018.7 1016.0 13.4
15/09:30pm 23.3 26.6 22.5 95 0.5 SSE 9 13 5 7 1018.5 1015.8 13.4
15/09:00pm 23.0 25.0 22.3 96 0.5 S 15 20 8 11 1018.7 1016.0 12.8
15/08:30pm 22.9 24.9 22.2 96 0.5 S 15 19 8 10 1018.7 1016.0 12.2
15/08:00pm 23.1 25.0 22.1 94 0.7 S 15 20 8 11 1018.2 1015.4 11.6
15/07:30pm 23.4 25.6 22.6 95 0.5 SSE 15 17 8 9 1017.8 1015.0 11.4
15/07:00pm 23.4 26.0 22.7 96 0.5 SSE 13 19 7 10 1017.3 1014.6 11.4
15/06:54pm 23.4 25.8 22.9 97 0.3 SSE 15 19 8 10 1017.3 1014.6 11.4
15/06:30pm 23.2 25.8 22.7 97 0.3 SSE 13 15 7 8 1017.5 1014.7 8.6
15/06:00pm 24.1 26.4 22.7 92 1.0 SE 15 20 8 11 1017.2 1014.5 0.8
15/05:58pm 24.1 26.2 22.5 91 1.1 SE 15 20 8 11 1017.1 1014.4 0.6
15/05:30pm 25.1 27.6 22.4 85 1.8 SE 13 19 7 10 1016.9 1014.2 0.0
15/05:00pm 25.8 27.2 21.9 79 2.6 SE 17 24 9 13 1016.7 1014.0 0.0
15/04:30pm 26.7 28.6 22.1 76 3.1 SSE 15 20 8 11 1016.5 1013.8 0.0
15/04:00pm 26.8 27.8 22.2 76 3.1 SSE 20 26 11 14 1016.5 1013.8 0.0
15/03:30pm 27.0 29.3 22.0 74 3.4 SE 13 20 7 11 1016.2 1013.4 0.0
15/03:00pm 27.5 28.3 21.8 71 3.9 SE 20 30 11 16 1016.2 1013.4 0.0
15/02:30pm 27.9 28.5 21.4 67 4.4 ESE 20 26 11 14 1016.1 1013.3 0.0
15/02:00pm 27.3 28.2 21.6 71 3.9 ESE 19 28 10 15 1016.5 1013.8 0.0
15/01:30pm 27.3 27.7 21.8 72 3.7 SE 22 30 12 16 1016.8 1014.1 0.0
15/01:00pm 27.7 28.0 21.5 69 4.2 ESE 22 30 12 16 1017.0 1014.3 0.0
15/12:30pm 27.7 28.1 21.7 70 4.1 SE 22 30 12 16 1017.5 1014.7 0.0
15/12:00pm 27.1 27.4 20.7 68 4.3 SE 20 35 11 19 1017.9 1015.1 0.0
15/11:30am 27.4 26.7 21.0 68 4.3 SE 26 33 14 18 1018.3 1015.6 0.0
15/11:00am 26.3 25.7 20.6 71 3.8 SE 24 33 13 18 1018.8 1016.1 0.0
15/10:30am 26.1 25.5 21.3 75 3.2 SE 26 35 14 19 1019.1 1016.4 0.0
15/10:00am 26.6 26.2 20.9 71 3.8 ESE 24 37 13 20 1019.0 1016.3 0.0
15/09:30am 25.5 24.9 20.5 74 3.3 SE 24 32 13 17 1019.1 1016.4 0.0
15/09:00am 24.9 24.6 20.4 76 3.0 SE 22 33 12 18 1018.9 1016.2 0.0
15/08:30am 23.8 23.0 20.1 80 2.4 SSE 24 30 13 16 1018.7 1016.0 0.0
15/08:00am 23.6 23.3 20.3 82 2.2 SE 22 32 12 17 1018.2 1015.4 0.0
15/07:30am 23.3 23.3 20.2 83 2.0 SSE 20 30 11 16 1018.2 1015.4 0.0
15/07:00am 22.7 22.8 19.9 84 1.8 SSE 19 26 10 14 1017.9 1015.1 0.0
15/06:30am 22.4 22.5 19.9 86 1.6 SSE 19 26 10 14 1017.5 1014.7 0.0
15/06:00am 22.5 22.3 19.7 84 1.8 SSE 20 32 11 17 1017.2 1014.5 0.0
15/05:30am 22.3 22.6 19.5 84 1.8 SSE 17 22 9 12 1017.1 1014.4 0.0
15/05:00am 22.2 21.9 19.2 83 1.9 SSE 19 24 10 13 1016.9 1014.2 0.0
15/04:30am 22.5 22.0 19.1 81 2.2 SSE 20 28 11 15 1017.1 1014.4 0.0
15/04:00am 22.8 22.0 19.2 80 2.3 SE 22 30 12 16 1017.1 1014.4 0.0
15/03:30am 22.8 22.7 19.6 82 2.1 SE 19 24 10 13 1017.3 1014.6 0.0
15/03:00am 22.7 23.0 19.7 83 2.0 SSE 17 24 9 13 1017.6 1014.8 0.0
15/02:30am 22.2 22.5 19.7 86 1.6 SSE 17 24 9 13 1017.6 1014.8 0.0
15/02:00am 22.2 22.5 19.7 86 1.6 SE 17 24 9 13 1017.9 1015.1 0.0
15/01:30am 22.4 22.7 19.6 84 1.8 SSE 17 28 9 15 1018.0 1015.2 0.0
15/01:22am 22.4 22.7 19.6 84 1.8 SSE 17 24 9 13 1018.2 1015.4 0.0
15/01:04am 22.3 23.1 19.8 86 1.6 SSE 15 20 8 11 1018.7 1016.0 0.0
15/01:00am 22.3 23.1 19.8 86 1.6 SSE 15 20 8 11 1018.9 1016.2 0.0
15/12:30am 22.2 22.9 19.7 86 1.6 SSE 15 20 8 11 1019.1 1016.4 0.0
15/12:00am 22.1 22.4 19.5 85 1.7 SSE 17 20 9 11 1019.5 1016.8 0.0
 
Date/Time
EST
Temp
°C
App
Temp
°C
Dew
Point
°C
Rel
Hum
%
Delta-T
°C
Wind Press
QNH
hPa
Press
MSL
hPa
Rain since
9am
mm
Dir  Spd
km/h
Gust
km/h
Spd
kts
Gust
kts
14/11:30pm 21.8 22.8 19.5 87 1.5 SSE 13 20 7 11 1019.6 1016.9 0.0
14/11:00pm 22.1 23.1 19.5 85 1.7 SE 13 19 7 10 1019.8 1017.0 0.0
14/10:30pm 22.6 22.5 19.6 83 2.0 SE 19 30 10 16 1019.9 1017.1 0.0
14/10:00pm 22.0 23.5 20.6 92 0.9 SE 13 17 7 9 1020.1 1017.3 0.0
14/09:41pm 21.9 23.0 20.4 91 1.0 SSE 15 20 8 11 1020.0 1017.2 0.0
14/09:30pm 22.2 22.8 20.3 89 1.2 SE 17 22 9 12 1020.1 1017.3 0.0
14/09:28pm 22.2 22.7 20.1 88 1.4 SSE 17 20 9 11 1020.1 1017.3 0.0
14/09:00pm 22.8 25.2 19.6 82 2.1 SSE 6 9 3 5 1020.1 1017.3 0.0
14/08:30pm 22.7 25.6 19.1 80 2.3 ENE 2 7 1 4 1019.8 1017.0 0.0
14/08:00pm 22.7 24.8 18.9 79 2.4 SE 6 11 3 6 1019.3 1016.6 0.0
14/07:30pm 22.8 23.6 19.0 79 2.5 SE 13 19 7 10 1018.8 1016.1 0.0
14/07:00pm 22.9 23.7 19.1 79 2.5 SSE 13 19 7 10 1018.4 1015.7 0.0
14/06:30pm 23.4 23.4 18.9 76 2.9 SSE 17 20 9 11 1018.1 1015.3 0.0
14/06:00pm 24.5 24.0 18.7 70 3.7 SE 19 26 10 14 1017.7 1014.9 0.0
14/05:30pm 25.7 25.0 18.6 65 4.6 SE 20 28 11 15 1017.2 1014.5 0.0
14/05:00pm 26.6 26.2 19.0 63 5.0 SE 19 28 10 15 1016.9 1014.2 0.0
14/04:30pm 27.0 25.5 18.6 60 5.5 SE 24 35 13 19 1016.5 1013.8 0.0
14/04:00pm 28.0 26.7 19.0 58 5.9 SE 24 33 13 18 1016.2 1013.4 0.0
14/03:30pm 28.0 26.3 18.1 55 6.4 SE 24 35 13 19 1016.1 1013.3 0.0
14/03:00pm 28.5 26.2 16.7 48 7.5 ESE 24 33 13 18 1016.0 1013.2 0.0
14/02:30pm 28.5 26.6 17.7 52 7.0 SE 24 30 13 16 1016.1 1013.3 0.0
14/02:00pm 28.5 27.1 18.9 56 6.3 SE 24 33 13 18 1016.3 1013.5 0.0
14/01:30pm 28.5 27.4 18.6 55 6.5 ESE 22 30 12 16 1016.6 1013.9 0.0
14/01:00pm 28.4 27.4 17.9 53 6.8 SE 20 28 11 15 1017.0 1014.3 0.0
14/12:30pm 28.5 27.4 17.7 52 7.0 ESE 20 30 11 16 1017.5 1014.7 0.0
14/12:00pm 28.4 27.4 17.9 53 6.8 ESE 20 32 11 17 1018.0 1015.2 0.0
14/11:30am 27.3 25.6 18.0 56 6.0 SE 24 33 13 18 1018.5 1015.8 0.0
14/11:00am 27.5 24.4 17.4 54 6.5 SE 30 41 16 22 1018.8 1016.1 0.0
14/10:30am 26.6 24.0 17.7 58 5.7 ESE 28 41 15 22 1019.3 1016.6 0.0
14/10:00am 25.7 23.1 17.9 62 5.0 ESE 28 39 15 21 1019.5 1016.8 0.0
14/09:30am 25.5 23.5 18.4 65 4.6 SE 26 35 14 19 1019.5 1016.8 0.0
14/09:00am 24.4 22.9 18.6 70 3.7 SE 24 33 13 18 1019.3 1016.6 1.2
14/08:30am 23.4 22.2 18.5 74 3.1 SE 22 32 12 17 1019.3 1016.6 1.2
14/08:00am 22.9 22.9 18.9 78 2.6 SE 17 22 9 12 1018.7 1016.0 1.2
14/07:30am 22.0 22.5 18.4 80 2.3 SSE 13 22 7 12 1018.3 1015.6 1.2
14/07:00am 21.6 21.3 17.4 77 2.6 SE 15 26 8 14 1018.1 1015.3 1.2
14/06:30am 21.0 20.2 17.2 79 2.4 SE 17 28 9 15 1017.7 1014.9 1.2
14/06:00am 21.1 20.5 17.5 80 2.3 SE 17 24 9 13 1017.1 1014.4 1.2
14/05:30am 20.8 21.1 17.8 83 1.9 SE 13 20 7 11 1016.9 1014.2 1.2
14/05:00am 21.2 21.4 18.6 85 1.7 SSE 15 22 8 12 1017.1 1014.4 1.2
14/04:30am 20.9 21.4 18.3 85 1.7 SE 13 24 7 13 1017.1 1014.4 1.2
14/04:00am 21.6 21.4 18.4 82 2.0 SE 17 30 9 16 1016.9 1014.2 1.2
14/03:30am 21.5 22.6 18.9 85 1.7 ESE 11 20 6 11 1017.1 1014.4 1.2
14/03:00am 21.4 21.3 18.8 85 1.7 ESE 17 24 9 13 1017.2 1014.5 1.2
14/02:42am 21.3 20.9 19.4 89 1.2 SE 20 30 11 16 1017.1 1014.4 1.2
14/02:30am 20.8 22.3 20.5 98 0.2 SSE 13 19 7 10 1017.2 1014.5 1.2
14/02:04am 21.1 22.8 20.1 94 0.7 SSE 11 17 6 9 1017.3 1014.6 0.2
14/02:00am 21.3 23.5 20.3 94 0.7 S 9 15 5 8 1017.5 1014.7 0.2
14/01:30am 21.2 25.1 20.4 95 0.5 CALM 0 0 0 0 1017.5 1014.7 0.2
14/01:08am 21.1 24.1 20.1 94 0.7 S 4 7 2 4 1017.6 1014.8 0.2
14/01:00am 21.2 24.4 20.4 95 0.5 SE 4 9 2 5 1017.8 1015.0 0.2
14/12:40am 21.1 24.7 20.6 97 0.3 NNE 2 7 1 4 1018.2 1015.4 0.2
14/12:30am 21.0 24.5 20.3 96 0.5 NNE 2 6 1 3 1018.2 1015.4 0.2
14/12:29am 21.1 24.6 20.4 96 0.5 NNE 2 6 1 3 1018.2 1015.4 0.2
14/12:18am 21.2 25.2 20.5 96 0.5 CALM 0 0 0 0 1018.4 1015.7 0.0
14/12:00am 21.2 25.1 20.4 95 0.5 CALM 0 0 0 0 1018.4 1015.7 0.0
 
Date/Time
EST
Temp
°C
App
Temp
°C
Dew
Point
°C
Rel
Hum
%
Delta-T
°C
Wind Press
QNH
hPa
Press
MSL
hPa
Rain since
9am
mm
Dir  Spd
km/h
Gust
km/h
Spd
kts
Gust
kts
13/11:30pm 21.2 23.7 20.2 94 0.7 NNE 7 11 4 6 1018.5 1015.8 0.0
13/11:00pm 21.8 22.9 19.7 88 1.4 SE 13 17 7 9 1018.4 1015.7 0.0
13/10:30pm 21.4 23.6 20.4 94 0.7 SSE 9 11 5 6 1018.4 1015.7 0.0
13/10:00pm 21.3 23.3 19.9 92 0.9 S 9 13 5 7 1018.5 1015.8 0.0
13/09:30pm 21.2 22.4 19.8 92 0.9 S 13 17 7 9 1018.4 1015.7 0.0
13/09:00pm 21.4 22.4 19.5 89 1.2 S 13 20 7 11 1018.4 1015.7 0.0
13/08:30pm 21.4 23.5 19.3 88 1.4 S 7 13 4 7 1018.4 1015.7 0.0
13/08:00pm 21.4 23.3 19.7 90 1.1 S 9 11 5 6 1018.1 1015.3 0.0
13/07:30pm 21.8 22.0 19.4 86 1.6 SSE 17 24 9 13 1017.9 1015.1 0.0
13/07:00pm 22.4 23.0 19.4 83 1.9 S 15 20 8 11 1017.5 1014.7 0.0
13/06:30pm 22.7 23.9 19.1 80 2.3 SSE 11 17 6 9 1017.2 1014.5 0.0
13/06:00pm 23.7 24.0 18.8 74 3.2 SSE 15 19 8 10 1017.0 1014.3 0.0
13/05:30pm 24.1 24.1 19.0 73 3.3 SSE 17 24 9 13 1016.8 1014.1 0.0
13/05:00pm 24.1 23.5 18.5 71 3.6 SSE 19 28 10 15 1016.7 1014.0 0.0
13/04:30pm 25.4 24.9 18.6 66 4.4 SSE 19 28 10 15 1016.1 1013.3 0.0
13/04:00pm 25.2 25.7 18.4 66 4.4 SE 13 19 7 10 1016.1 1013.3 0.0
13/03:30pm 24.8 25.0 18.5 68 4.1 ESE 15 19 8 10 1016.0 1013.2 0.0
13/03:00pm 24.8 22.2 17.8 65 4.5 SE 28 43 15 23 1015.9 1013.1 0.0
13/02:30pm 27.2 25.9 16.8 53 6.6 SE 19 26 10 14 1015.7 1012.9 0.0
13/02:00pm 28.2 27.0 16.1 47 7.6 SE 17 26 9 14 1015.8 1013.0 0.0
13/01:30pm 28.3 27.7 15.6 46 7.9 E 13 26 7 14 1015.9 1013.1 0.0
13/01:00pm 27.1 25.2 16.7 53 6.6 SE 22 30 12 16 1016.2 1013.4 0.0
13/12:30pm 27.5 26.7 16.1 49 7.2 ESE 15 24 8 13 1016.4 1013.7 0.0
13/12:00pm 26.1 23.6 16.1 54 6.2 SE 24 30 13 16 1017.0 1014.3 0.0
13/11:30am 26.9 25.7 17.4 56 6.1 SE 20 28 11 15 1017.1 1014.4 0.0
13/11:05am 26.4 24.3 17.2 57 5.9 SE 24 32 13 17 1017.3 1014.6 0.0
13/11:00am 26.2 24.0 17.0 57 5.8 SE 24 32 13 17 1017.5 1014.7 0.0
13/10:30am 26.1 24.8 16.9 57 5.8 ESE 19 28 10 15 1017.7 1014.9 0.0
13/10:29am 26.4 25.3 17.2 57 5.9 ESE 19 28 10 15 1017.8 1015.0 0.0
13/10:00am 25.9 23.5 16.5 56 5.9 SE 24 32 13 17 1017.9 1015.1 0.0
13/09:30am 25.4 23.2 16.8 59 5.4 ESE 24 35 13 19 1017.7 1014.9 0.0
13/09:00am 24.8 23.2 16.5 60 5.2 ESE 20 32 11 17 1017.7 1014.9 0.0
13/08:30am 23.7 21.6 17.2 67 4.1 SE 24 35 13 19 1017.3 1014.6 0.0
13/08:00am 23.1 22.2 17.8 72 3.4 SE 19 28 10 15 1017.1 1014.4 0.0
13/07:47am 22.4 22.0 18.0 76 2.8 SE 17 24 9 13 1016.9 1014.2 0.0
13/07:30am 21.3 20.8 17.9 81 2.1 SSE 17 22 9 12 1016.7 1014.0 0.0

Other formats

Comma delimited format used in spreadsheet applications
http://www.bom.gov.au/fwo/IDQ60801/IDQ60801.95286.axf

JavaScript Object Notation format (JSON) in row-major order
http://www.bom.gov.au/fwo/IDQ60801/IDQ60801.95286.json

Data quality

Most of these data are generated automatically and are frequently updated. Quality checks on data are not normally performed. It is possible for incorrect values to appear. Refer to information at About Latest Weather Observations and please check the disclaimer before using these data.